Berkeley Township, New Jersey
Current Conditions -  °F | °C
As of 9:15 AM on Saturday 22 Nov 2014 (Local Time) from KMJX Reporting Station
Clear Clear  
Wind Chill: -1°   Ceiling: Unl
Heat Index: -1°   Visibility: 10mi
Dew Point: -10°   Wind: 0mph
Humidity: 51%   Direction: NA
Pressure: 30.51"   Gusts: NA
Location:  39.9559°N, 74.2574°W
Report Text: KMJX 221415Z AUTO 00000KT 10SM CLR M01/M10 A3051 RMK AO1
Loading
Personal Weather Stations






























Interactive Weather Map New forecast layout! Learn more

10-Day Weather Forecast

Advertisements
Track Severe Weather on mobile